x

New Dungeness - 17 Nm Ne Of Port Angeles, Wa (46088) Weather Station

1:50pm - Tue 16th Oct 2018 All times are PDT. -7 hours from GMT.

  • Wind
  • Sea Temp 52°f
  • Air Temp 54°f
  • Sea Pressure 1025.4mb
  • New Dungeness - 17 Nm Ne Of Port Angeles, Wa
  • New Dungeness - 17 Nm Ne Of Port Angeles, Wa

More Historic Weather Station data

Upgrade to MSW Pro to gain access to the past 30 days of data for over 8000 Wavebouys and Weather Stations around the globe.

Join

Comparision Forecast

View Surf forecast
   
Tue 10/16 1:50pm  -  2 mph 1025.4mb 52f 54f
1:20pm  -  0 mph 1025.9mb 51f 55f
12:50pm 2 2 mph 1026.3mb 51f 53f
12:20pm 2 4 mph 1026.6mb 51f 53f
11:50am 2 2 mph 1026.7mb 51f 53f
11:20am 4 4 mph 1026.7mb 51f 52f
10:50am 2 4 mph 1026.8mb 51f 51f
10:20am 4 4 mph 1026.8mb 50f 51f
9:20am 2 2 mph 1026.9mb 50f 52f
8:50am  -  2 mph 1026.9mb 50f 53f
8:20am 2 4 mph 1026.8mb 50f 53f
7:50am  -  2 mph 1026.8mb 50f 51f
7:20am  -  2 mph 1026.8mb 50f 50f
6:50am  -  2 mph 1026.8mb 50f 51f
6:20am 2 2 mph 1026.8mb 50f 51f
5:50am 2 2 mph 1026.9mb 50f 51f
5:20am 4 4 mph 1026.9mb 50f 51f
4:50am 4 7 mph 1026.8mb 51f 51f
4:20am 9 11 mph 1026.9mb 51f 51f
3:50am 9 11 mph 1026.9mb 51f 51f
3:20am 7 7 mph 1027.1mb 51f 51f
2:50am 2 2 mph 1027.2mb 51f 50f
2:20am 2 4 mph 1027.3mb 51f 51f
1:50am  -  0 mph 1027.3mb 51f 51f
1:20am 2 2 mph 1027.3mb 51f 51f
Mon 10/15 11:50pm 2 2 mph 1027.1mb 50f 51f
11:20pm 4 4 mph 1027mb 50f 52f
10:50pm 2 4 mph 1026.9mb 50f 51f
10:20pm 2 4 mph 1026.8mb 50f 52f
9:50pm 2 4 mph 1026.7mb 50f 51f
9:20pm 2 4 mph 1026.5mb 50f 52f
8:50pm 4 4 mph 1026.3mb 50f 53f
8:20pm 2 2 mph 1026.4mb 50f 54f
7:50pm 4 4 mph 1026.3mb 50f 52f
7:20pm 2 4 mph 1026.2mb 50f 54f
6:50pm 4 4 mph 1026.1mb 50f 52f
6:20pm 2 4 mph 1026.2mb 51f 52f
5:50pm 4 4 mph 1026.2mb 51f 53f
5:20pm 4 4 mph 1026.4mb 51f 54f
4:50pm 2 2 mph 1026.8mb 51f 55f
3:50pm  -  2 mph 1027.3mb 52f 55f
3:20pm 2 2 mph 1027.4mb 51f 55f
1:50pm 4 7 mph 1028mb 51f 52f
1:20pm 4 7 mph 1028.4mb 51f 52f
12:50pm 7 7 mph 1028.5mb 51f 51f
12:20pm 4 4 mph 1028.8mb 50f 51f
11:50am 7 7 mph 1028.9mb 50f 51f
11:20am 9 9 mph 1028.9mb 50f 50f
10:50am 7 9 mph 1028.9mb 50f 50f
10:20am 7 9 mph 1028.9mb 50f 50f
9:50am 9 11 mph 1028.9mb 50f 50f
9:20am 9 11 mph 1028.7mb 50f 50f
8:50am 9 11 mph 1028.6mb 50f 50f
8:20am 9 9 mph 1028.5mb 50f 50f
7:50am 9 9 mph 1028.5mb 50f 50f
7:20am 7 9 mph 1028.5mb 50f 50f
6:50am 9 11 mph 1028.5mb 50f 50f
6:20am 9 11 mph 1028.5mb 50f 50f
5:50am 9 11 mph 1028.3mb 50f 50f
5:20am 11 13 mph 1028.4mb 50f 50f
4:50am 9 11 mph 1028.5mb 50f 50f
4:20am 9 11 mph 1028.6mb 50f 50f
3:50am 9 11 mph 1028.6mb 50f 50f
3:20am 9 11 mph 1028.7mb 50f 50f
2:50am 9 9 mph 1028.8mb 50f 50f
2:20am 9 9 mph 1028.8mb 50f 50f
1:20am 9 11 mph 1028.6mb 50f 51f
12:50am 7 7 mph 1028.8mb 50f 50f
12:20am 4 7 mph 1028.8mb 50f 50f
Sun 10/14 11:20pm 4 7 mph 1028.6mb 50f 50f